createdAt,value
2022-08-26T00:01:57.454Z,86.13
2022-08-26T00:04:29.984Z,81.97
2022-08-26T00:07:01.737Z,84.67
2022-08-26T00:09:37.252Z,80.63
2022-08-26T00:12:12.391Z,87.63
2022-08-26T00:14:44.265Z,85.60
2022-08-26T00:17:15.937Z,82.83
2022-08-26T00:19:47.538Z,83.30
2022-08-26T00:22:21.596Z,100.57
2022-08-26T00:24:53.357Z,86.10
2022-08-26T00:27:25.020Z,87.20
2022-08-26T00:29:57.335Z,81.27
2022-08-26T00:32:30.134Z,82.50
2022-08-26T00:35:04.449Z,81.00
2022-08-26T00:40:13.222Z,85.90
2022-08-26T00:42:45.917Z,83.73
2022-08-26T00:45:18.347Z,85.23
2022-08-26T00:47:54.680Z,81.17
2022-08-26T00:50:32.941Z,85.20
2022-08-26T00:53:23.837Z,78.80
2022-08-26T00:56:13.274Z,79.60
2022-08-26T00:58:48.935Z,87.20
2022-08-26T01:01:22.931Z,80.77
2022-08-26T01:06:28.534Z,82.83
2022-08-26T01:09:05.225Z,81.63
2022-08-26T01:11:40.300Z,78.60
2022-08-26T01:14:13.577Z,82.67
2022-08-26T01:16:45.734Z,81.10
2022-08-26T01:19:24.989Z,83.30
2022-08-26T01:22:00.140Z,80.63
2022-08-26T01:24:31.895Z,110.80
2022-08-26T01:27:07.652Z,83.63
2022-08-26T01:29:42.689Z,84.93
2022-08-26T01:32:18.616Z,84.20
2022-08-26T01:34:50.861Z,81.20
2022-08-26T01:37:28.871Z,79.23
2022-08-26T01:40:00.793Z,83.10
2022-08-26T01:42:32.894Z,80.03
2022-08-26T01:45:16.447Z,78.23
2022-08-26T01:47:49.994Z,82.73
2022-08-26T01:50:35.155Z,82.77
2022-08-26T01:53:10.798Z,83.73
2022-08-26T01:55:46.131Z,83.63
2022-08-26T01:58:30.380Z,80.97
2022-08-26T02:01:02.976Z,79.77
2022-08-26T02:03:39.705Z,82.65
2022-08-26T02:06:15.001Z,81.70
2022-08-26T02:08:50.663Z,82.03
2022-08-26T02:11:22.949Z,79.53
2022-08-26T02:14:02.812Z,84.63
2022-08-26T02:16:39.641Z,79.40
2022-08-26T02:19:20.378Z,83.10
2022-08-26T02:21:53.748Z,84.67
2022-08-26T02:24:29.780Z,83.77
2022-08-26T02:27:01.573Z,80.87
2022-08-26T02:29:38.318Z,79.97
2022-08-26T02:32:10.227Z,82.60
2022-08-26T02:34:41.885Z,77.40
2022-08-26T02:37:14.183Z,78.63
2022-08-26T02:39:45.889Z,79.80
2022-08-26T02:44:51.920Z,82.77
2022-08-26T02:47:24.772Z,79.87
2022-08-26T02:49:56.917Z,78.17
2022-08-26T02:52:28.606Z,76.27
2022-08-26T02:55:00.218Z,81.43
2022-08-26T02:57:33.185Z,82.57
2022-08-26T03:00:07.205Z,77.30
2022-08-26T03:02:38.825Z,77.78
2022-08-26T03:05:11.366Z,80.60
2022-08-26T03:07:43.470Z,79.67
2022-08-26T03:10:18.479Z,179.73
2022-08-26T03:12:50.135Z,219.77
2022-08-26T03:15:24.372Z,219.18
2022-08-26T03:17:56.292Z,220.27
2022-08-26T03:20:28.757Z,176.17
2022-08-26T03:23:04.393Z,86.00
2022-08-26T03:25:36.039Z,84.10
2022-08-26T03:28:09.518Z,86.27
2022-08-26T03:30:44.639Z,85.97
2022-08-26T03:33:16.945Z,88.83
2022-08-26T03:35:50.666Z,84.17
2022-08-26T03:38:25.169Z,87.55
2022-08-26T03:43:28.839Z,91.17
2022-08-26T03:46:08.590Z,89.97
2022-08-26T03:48:40.611Z,89.60
2022-08-26T03:51:19.418Z,89.03
2022-08-26T03:53:51.015Z,88.93
2022-08-26T03:56:22.712Z,86.87
2022-08-26T03:58:54.765Z,87.93
2022-08-26T04:01:27.595Z,86.00
2022-08-26T04:04:00.424Z,91.30
2022-08-26T04:06:35.705Z,88.10
2022-08-26T04:09:10.394Z,86.20
2022-08-26T04:11:43.825Z,90.93
2022-08-26T04:14:20.059Z,89.72
2022-08-26T04:16:55.382Z,91.20
2022-08-26T04:19:27.057Z,84.20
2022-08-26T04:21:59.169Z,86.70
2022-08-26T04:24:32.896Z,86.10
2022-08-26T04:27:04.770Z,87.43
2022-08-26T04:29:43.580Z,85.97
2022-08-26T04:32:15.694Z,87.93
2022-08-26T04:34:48.077Z,89.33
2022-08-26T04:37:20.302Z,85.73
2022-08-26T04:39:54.352Z,85.63
2022-08-26T04:42:26.349Z,90.70
2022-08-26T04:45:01.124Z,93.83
2022-08-26T04:47:32.806Z,90.27
2022-08-26T04:50:05.089Z,175.83
2022-08-26T04:55:10.705Z,220.60
2022-08-26T04:57:43.117Z,88.67
2022-08-26T05:00:15.407Z,89.17
2022-08-26T05:02:47.106Z,91.03
2022-08-26T05:05:23.505Z,93.73
2022-08-26T05:07:55.101Z,87.50
2022-08-26T05:10:27.024Z,90.63
2022-08-26T05:13:00.260Z,91.40
2022-08-26T05:15:31.836Z,94.23
2022-08-26T05:18:07.781Z,92.27
2022-08-26T05:20:41.581Z,91.83
2022-08-26T05:23:14.782Z,92.95
2022-08-26T05:25:48.816Z,93.28
2022-08-26T05:28:22.110Z,93.35
2022-08-26T05:30:54.306Z,94.10
2022-08-26T05:33:25.977Z,102.07
2022-08-26T05:35:57.612Z,97.87
2022-08-26T05:38:30.262Z,94.80
2022-08-26T05:41:02.601Z,96.60
2022-08-26T05:43:38.439Z,97.87
2022-08-26T05:46:10.561Z,95.23
2022-08-26T05:48:44.208Z,98.30
2022-08-26T05:51:16.190Z,97.35
2022-08-26T05:53:54.585Z,97.77
2022-08-26T05:56:27.831Z,105.03
2022-08-26T05:59:03.283Z,105.70
2022-08-26T06:01:36.143Z,102.30
2022-08-26T06:04:07.947Z,100.70
2022-08-26T06:06:42.685Z,108.83
2022-08-26T06:09:17.438Z,107.47
2022-08-26T06:11:50.189Z,114.83
2022-08-26T06:14:22.972Z,110.60
2022-08-26T06:16:54.955Z,110.30
2022-08-26T06:19:32.797Z,115.57
2022-08-26T06:22:24.868Z,111.77
2022-08-26T06:25:15.850Z,117.30
2022-08-26T06:27:48.870Z,114.40
2022-08-26T06:30:21.063Z,107.78
2022-08-26T06:32:54.228Z,120.40
2022-08-26T06:35:26.709Z,123.13
2022-08-26T06:37:58.425Z,115.33
2022-08-26T06:40:30.156Z,118.70
2022-08-26T06:43:01.977Z,120.33
2022-08-26T06:45:34.714Z,116.73
2022-08-26T06:48:07.537Z,122.30
2022-08-26T06:50:40.859Z,120.25
2022-08-26T06:53:13.636Z,124.73
2022-08-26T06:55:46.911Z,119.63
2022-08-26T06:58:23.469Z,125.43
2022-08-26T07:01:01.991Z,123.97
2022-08-26T07:03:39.628Z,128.60
2022-08-26T07:06:11.836Z,124.00
2022-08-26T07:08:43.421Z,126.40
2022-08-26T07:11:16.416Z,134.10
2022-08-26T07:13:50.455Z,131.98
2022-08-26T07:16:27.508Z,132.53
2022-08-26T07:18:59.329Z,125.60
2022-08-26T07:21:33.107Z,130.82
2022-08-26T07:24:04.771Z,132.88
2022-08-26T07:26:36.422Z,131.88
2022-08-26T07:29:09.888Z,134.77
2022-08-26T07:31:42.691Z,131.63
2022-08-26T07:34:17.134Z,132.32
2022-08-26T07:36:51.462Z,132.63
2022-08-26T07:39:26.788Z,131.25
2022-08-26T07:41:59.936Z,137.05
2022-08-26T07:44:31.645Z,133.35
2022-08-26T07:47:03.746Z,134.75
2022-08-26T07:49:42.690Z,139.63
2022-08-26T07:52:14.321Z,135.63
2022-08-26T07:54:45.903Z,131.93
2022-08-26T07:57:17.493Z,136.70
2022-08-26T07:59:51.063Z,137.88
2022-08-26T08:02:24.129Z,138.40
2022-08-26T08:04:56.845Z,139.85
2022-08-26T08:07:44.530Z,133.23
2022-08-26T08:10:21.063Z,132.00
2022-08-26T08:12:53.476Z,132.98
2022-08-26T08:15:28.747Z,134.93
2022-08-26T08:18:00.998Z,137.43
2022-08-26T08:20:34.114Z,134.27
2022-08-26T08:23:05.773Z,132.70
2022-08-26T08:25:38.178Z,126.88
2022-08-26T08:28:09.970Z,127.88
2022-08-26T08:30:42.970Z,129.33
2022-08-26T08:33:14.898Z,129.43
2022-08-26T08:35:46.490Z,120.93
2022-08-26T08:38:18.476Z,124.93
2022-08-26T08:40:50.784Z,119.78
2022-08-26T08:43:38.373Z,121.28
2022-08-26T08:46:16.804Z,124.50
2022-08-26T08:48:57.190Z,126.18
2022-08-26T08:51:52.311Z,126.68
2022-08-26T08:54:26.762Z,125.95
2022-08-26T08:58:02.070Z,124.60
2022-08-26T09:00:58.591Z,131.50
2022-08-26T09:03:53.508Z,125.97
2022-08-26T09:06:25.700Z,127.03
2022-08-26T09:09:04.800Z,123.15
2022-08-26T09:11:38.788Z,126.28
2022-08-26T09:14:10.699Z,127.97
2022-08-26T09:16:59.127Z,126.68
2022-08-26T09:20:01.341Z,121.72
2022-08-26T09:22:39.117Z,122.28
2022-08-26T09:25:13.737Z,127.40
2022-08-26T09:27:50.263Z,121.75
2022-08-26T09:30:32.946Z,121.93
2022-08-26T09:33:11.161Z,125.55
2022-08-26T09:35:47.305Z,123.47
2022-08-26T09:38:28.021Z,123.63
2022-08-26T09:41:05.420Z,124.60
2022-08-26T09:43:38.414Z,123.90
2022-08-26T09:46:18.597Z,122.80
2022-08-26T09:48:51.793Z,126.80
2022-08-26T09:51:30.776Z,130.77
2022-08-26T09:54:05.717Z,128.43
2022-08-26T09:56:39.837Z,130.15
2022-08-26T09:59:14.301Z,124.68
2022-08-26T10:01:50.659Z,124.82
2022-08-26T10:04:31.907Z,126.10
2022-08-26T10:07:08.094Z,123.88
2022-08-26T10:09:43.138Z,120.10
2022-08-26T10:12:21.413Z,127.10
2022-08-26T10:14:57.477Z,122.85
2022-08-26T10:17:38.481Z,124.60
2022-08-26T10:20:26.345Z,126.78
2022-08-26T10:23:18.525Z,125.03
2022-08-26T10:26:02.829Z,117.43
2022-08-26T10:28:50.079Z,121.13
2022-08-26T10:31:40.598Z,121.78
2022-08-26T10:34:14.148Z,119.18
2022-08-26T10:37:14.725Z,130.70
2022-08-26T10:40:16.120Z,125.25
2022-08-26T10:43:12.451Z,119.93
2022-08-26T10:45:51.313Z,121.28
2022-08-26T10:48:43.931Z,123.05
2022-08-26T10:51:28.814Z,126.45
2022-08-26T10:54:37.362Z,120.15
2022-08-26T10:57:30.378Z,118.43
2022-08-26T11:00:44.053Z,124.80
2022-08-26T11:03:21.710Z,115.75
2022-08-26T11:06:19.148Z,120.70
2022-08-26T11:08:53.949Z,121.30
2022-08-26T11:11:40.552Z,124.78
2022-08-26T11:14:28.953Z,122.63
2022-08-26T11:17:02.121Z,119.47
2022-08-26T11:19:59.599Z,114.05
2022-08-26T11:22:47.918Z,121.57
2022-08-26T11:25:24.439Z,118.93
2022-08-26T11:28:00.617Z,124.05
2022-08-26T11:30:42.703Z,124.45
2022-08-26T11:33:43.879Z,121.60
2022-08-26T11:36:51.920Z,126.10
2022-08-26T11:39:54.723Z,123.20
2022-08-26T11:42:42.722Z,120.75
2022-08-26T11:45:17.965Z,115.10
2022-08-26T11:47:50.132Z,120.70
2022-08-26T11:50:26.393Z,116.68
2022-08-26T11:53:06.282Z,116.43
2022-08-26T11:55:44.889Z,115.55
2022-08-26T11:58:22.307Z,117.10
2022-08-26T12:01:27.446Z,116.43
2022-08-26T12:04:08.282Z,124.40
2022-08-26T12:06:47.402Z,115.43
2022-08-26T12:09:28.565Z,114.88
2022-08-26T12:12:12.105Z,115.68
2022-08-26T12:14:44.701Z,115.25
2022-08-26T12:17:28.597Z,118.90
2022-08-26T12:20:00.240Z,115.45
2022-08-26T12:22:35.925Z,122.22
2022-08-26T12:25:10.124Z,119.60
2022-08-26T12:27:44.074Z,121.50
2022-08-26T12:30:22.465Z,118.35
2022-08-26T12:33:22.494Z,115.32
2022-08-26T12:35:56.653Z,114.20
2022-08-26T12:38:29.902Z,118.95
2022-08-26T12:41:01.694Z,120.00
2022-08-26T12:43:40.637Z,115.07
2022-08-26T12:46:26.906Z,113.65
2022-08-26T12:49:03.919Z,119.80
2022-08-26T12:51:41.979Z,122.83
2022-08-26T12:54:15.938Z,120.00
2022-08-26T12:56:47.637Z,115.10
2022-08-26T12:59:26.076Z,117.07
2022-08-26T13:01:58.052Z,109.10
2022-08-26T13:04:33.908Z,112.60
2022-08-26T13:07:34.628Z,115.97
2022-08-26T13:10:06.622Z,117.10
2022-08-26T13:12:42.061Z,113.43
2022-08-26T13:15:13.671Z,111.60
2022-08-26T13:17:45.308Z,116.97
2022-08-26T13:20:17.072Z,115.47
2022-08-26T13:22:51.697Z,115.13
2022-08-26T13:25:30.124Z,116.60
2022-08-26T13:28:01.898Z,112.35
2022-08-26T13:30:33.637Z,112.07
2022-08-26T13:33:06.339Z,117.53
2022-08-26T13:35:38.730Z,116.47
2022-08-26T13:38:22.369Z,118.00
2022-08-26T13:41:06.303Z,120.38
2022-08-26T13:43:37.995Z,117.80
2022-08-26T13:46:09.662Z,117.32
2022-08-26T13:48:41.315Z,119.18
2022-08-26T13:51:18.587Z,116.23
2022-08-26T13:53:52.400Z,117.32
2022-08-26T13:58:57.946Z,115.57
2022-08-26T14:01:31.137Z,118.32
2022-08-26T14:04:03.325Z,116.65
2022-08-26T14:06:34.948Z,116.22
2022-08-26T14:09:06.622Z,114.93
2022-08-26T14:11:41.281Z,117.10
2022-08-26T14:14:26.934Z,116.07
2022-08-26T14:17:00.282Z,115.60
2022-08-26T14:19:32.371Z,112.13
2022-08-26T14:22:04.185Z,117.90
2022-08-26T14:24:35.811Z,122.17
2022-08-26T14:27:07.444Z,113.70
2022-08-26T14:29:40.034Z,119.20
2022-08-26T14:32:24.678Z,118.32
2022-08-26T14:34:56.493Z,118.18
2022-08-26T14:37:28.159Z,117.67
2022-08-26T14:39:59.888Z,116.17
2022-08-26T14:42:32.299Z,112.67
2022-08-26T14:45:07.201Z,114.93
2022-08-26T14:47:39.309Z,121.53
2022-08-26T14:50:17.302Z,113.47
2022-08-26T14:53:07.876Z,70.30
2022-08-26T14:55:41.859Z,5.90
2022-08-26T14:58:13.479Z,237.10
2022-08-26T15:00:45.140Z,114.47
2022-08-26T15:05:55.589Z,114.27
2022-08-26T15:08:27.253Z,115.95
2022-08-26T15:10:59.611Z,114.33
2022-08-26T15:13:33.921Z,113.60
2022-08-26T15:16:07.165Z,115.33
2022-08-26T15:18:41.728Z,116.27
2022-08-26T15:21:13.343Z,112.77
2022-08-26T15:23:47.787Z,110.63
2022-08-26T15:26:20.917Z,112.63
2022-08-26T15:28:52.720Z,111.87
2022-08-26T15:31:31.384Z,115.80
2022-08-26T15:34:06.387Z,111.40
2022-08-26T15:36:38.481Z,114.67
2022-08-26T15:39:10.653Z,109.57
2022-08-26T15:41:42.435Z,112.87
2022-08-26T15:44:14.360Z,108.90
2022-08-26T15:46:48.349Z,107.77
2022-08-26T15:49:20.092Z,110.32
2022-08-26T15:51:53.311Z,102.53
2022-08-26T15:54:25.005Z,104.53
2022-08-26T15:56:59.487Z,95.77
2022-08-26T15:59:34.164Z,100.83
2022-08-26T16:02:05.943Z,97.47
2022-08-26T16:04:37.604Z,97.90
2022-08-26T16:07:09.256Z,97.50
2022-08-26T16:09:40.866Z,100.50
2022-08-26T16:12:12.551Z,95.80
2022-08-26T16:14:45.562Z,100.53
2022-08-26T16:17:18.275Z,93.23
2022-08-26T16:19:49.971Z,93.97
2022-08-26T16:22:21.628Z,94.77
2022-08-26T16:24:58.250Z,93.83
2022-08-26T16:27:29.863Z,89.23
2022-08-26T16:30:03.642Z,92.23
2022-08-26T16:32:35.318Z,92.30
2022-08-26T16:35:07.438Z,90.80
2022-08-26T16:37:39.490Z,92.27
2022-08-26T16:40:11.462Z,96.97
2022-08-26T16:42:45.093Z,97.53
2022-08-26T16:45:17.176Z,92.22
2022-08-26T16:47:50.022Z,98.47
2022-08-26T16:50:25.937Z,93.67
2022-08-26T16:52:57.611Z,88.93
2022-08-26T16:55:30.044Z,91.87
2022-08-26T16:58:02.312Z,95.63
2022-08-26T17:00:34.699Z,96.47
2022-08-26T17:03:06.490Z,94.50
2022-08-26T17:05:40.875Z,95.03
2022-08-26T17:08:16.359Z,91.60
2022-08-26T17:11:01.035Z,94.43
2022-08-26T17:13:35.245Z,87.43
2022-08-26T17:16:09.807Z,89.00
2022-08-26T17:18:41.532Z,94.22
2022-08-26T17:21:16.265Z,88.47
2022-08-26T17:23:48.060Z,87.53
2022-08-26T17:26:20.212Z,89.60
2022-08-26T17:28:52.591Z,92.57
2022-08-26T17:31:27.234Z,93.30
2022-08-26T17:33:59.005Z,90.00
2022-08-26T17:36:30.579Z,92.27
2022-08-26T17:39:02.286Z,91.27
2022-08-26T17:41:33.994Z,95.37
2022-08-26T17:44:05.840Z,92.87
2022-08-26T17:46:38.492Z,90.33
2022-08-26T17:49:10.314Z,95.83
2022-08-26T17:51:41.928Z,95.17
2022-08-26T17:54:14.441Z,94.17
2022-08-26T17:56:46.042Z,91.77
2022-08-26T17:59:20.655Z,86.43
2022-08-26T18:01:56.656Z,89.80
2022-08-26T18:04:28.418Z,91.70
2022-08-26T18:07:00.081Z,92.43
2022-08-26T18:09:32.352Z,90.50
2022-08-26T18:12:09.067Z,89.00
2022-08-26T18:14:40.691Z,87.13
2022-08-26T18:17:12.376Z,86.37
2022-08-26T18:19:49.174Z,89.23
2022-08-26T18:22:21.933Z,87.63
2022-08-26T18:24:58.847Z,86.53
2022-08-26T18:27:30.948Z,85.23
2022-08-26T18:30:09.805Z,82.73
2022-08-26T18:32:44.280Z,82.40
2022-08-26T18:35:16.844Z,82.23
2022-08-26T18:37:48.405Z,86.80
2022-08-26T18:40:22.100Z,85.03
2022-08-26T18:42:54.037Z,86.80
2022-08-26T18:45:25.951Z,86.90
2022-08-26T18:47:57.544Z,89.83
2022-08-26T18:50:30.633Z,81.77
2022-08-26T18:53:02.550Z,86.20
2022-08-26T18:55:34.238Z,82.83
2022-08-26T18:58:05.826Z,85.57
2022-08-26T19:00:37.804Z,91.47
2022-08-26T19:03:18.452Z,85.17
2022-08-26T19:05:50.804Z,87.90
2022-08-26T19:08:22.600Z,88.90
2022-08-26T19:10:54.278Z,83.57
2022-08-26T19:13:25.904Z,84.93
2022-08-26T19:15:57.594Z,88.30
2022-08-26T19:18:29.521Z,89.53
2022-08-26T19:21:03.517Z,83.37
2022-08-26T19:23:35.357Z,94.75
2022-08-26T19:26:07.701Z,86.37
2022-08-26T19:28:40.811Z,86.63
2022-08-26T19:31:12.747Z,88.07
2022-08-26T19:33:45.400Z,88.73
2022-08-26T19:36:21.727Z,86.00
2022-08-26T19:38:54.357Z,85.77
2022-08-26T19:41:37.240Z,90.47
2022-08-26T19:44:35.076Z,85.17
2022-08-26T19:47:08.882Z,89.07
2022-08-26T19:49:40.870Z,86.28
2022-08-26T19:52:12.551Z,88.57
2022-08-26T19:54:44.573Z,90.27
2022-08-26T19:57:16.925Z,86.83
2022-08-26T19:59:48.604Z,86.20
2022-08-26T20:02:22.298Z,89.57
2022-08-26T20:04:54.585Z,86.43
2022-08-26T20:07:26.706Z,84.07
2022-08-26T20:09:59.476Z,90.97
2022-08-26T20:12:33.592Z,94.87
2022-08-26T20:15:05.818Z,82.60
2022-08-26T20:17:38.386Z,84.10
2022-08-26T20:20:33.787Z,81.37
2022-08-26T20:23:06.048Z,84.73
2022-08-26T20:25:38.028Z,87.07
2022-08-26T20:28:10.027Z,88.97
2022-08-26T20:30:41.906Z,87.47
2022-08-26T20:33:13.557Z,86.33
2022-08-26T20:35:49.169Z,87.00
2022-08-26T20:38:21.581Z,91.40
2022-08-26T20:40:54.127Z,91.10
2022-08-26T20:43:28.059Z,88.77
2022-08-26T20:46:00.711Z,88.10
2022-08-26T20:48:35.022Z,82.80
2022-08-26T20:53:41.367Z,84.83
2022-08-26T20:56:15.334Z,86.70
2022-08-26T20:58:47.160Z,84.22
2022-08-26T21:01:24.562Z,86.20
2022-08-26T21:03:57.215Z,85.07
2022-08-26T21:06:29.665Z,86.90
2022-08-26T21:09:04.137Z,95.53
2022-08-26T21:11:37.164Z,85.27
2022-08-26T21:14:16.260Z,87.60
2022-08-26T21:16:49.878Z,97.23
2022-08-26T21:19:21.735Z,85.33
2022-08-26T21:21:53.696Z,83.90
2022-08-26T21:24:25.396Z,85.30
2022-08-26T21:26:57.065Z,88.30
2022-08-26T21:29:28.710Z,83.10
2022-08-26T21:32:00.484Z,85.17
2022-08-26T21:34:32.277Z,86.97
2022-08-26T21:37:08.961Z,84.33
2022-08-26T21:39:48.474Z,81.15
2022-08-26T21:42:20.420Z,82.70
2022-08-26T21:44:53.485Z,87.33
2022-08-26T21:47:25.674Z,81.17
2022-08-26T21:49:57.427Z,83.63
2022-08-26T21:52:29.365Z,81.93
2022-08-26T21:55:02.376Z,84.13
2022-08-26T21:57:34.292Z,83.10
2022-08-26T22:00:09.031Z,84.07
2022-08-26T22:02:40.702Z,82.97
2022-08-26T22:05:12.454Z,86.43
2022-08-26T22:07:46.140Z,88.78
2022-08-26T22:10:17.814Z,81.63
2022-08-26T22:12:49.436Z,83.63
2022-08-26T22:15:23.277Z,80.93
2022-08-26T22:17:54.982Z,85.22
2022-08-26T22:20:26.638Z,85.37
2022-08-26T22:22:59.026Z,80.53
2022-08-26T22:25:30.813Z,81.97
2022-08-26T22:28:02.637Z,81.17
2022-08-26T22:30:35.377Z,77.43
2022-08-26T22:33:07.030Z,82.37
2022-08-26T22:35:43.720Z,82.33
2022-08-26T22:38:16.028Z,83.20
2022-08-26T22:40:57.140Z,81.50
2022-08-26T22:43:29.537Z,85.03
2022-08-26T22:46:01.276Z,86.53
2022-08-26T22:48:32.913Z,79.57
2022-08-26T22:51:05.374Z,81.47
2022-08-26T22:53:40.044Z,82.00
2022-08-26T22:56:14.554Z,83.97
2022-08-26T22:58:49.377Z,79.00
2022-08-26T23:01:21.200Z,80.17
2022-08-26T23:03:53.571Z,79.10
2022-08-26T23:06:25.255Z,81.97
2022-08-26T23:08:56.890Z,79.77
2022-08-26T23:11:28.529Z,77.23
2022-08-26T23:14:05.040Z,76.73
2022-08-26T23:16:41.606Z,74.60
2022-08-26T23:19:15.096Z,75.73
2022-08-26T23:21:47.625Z,77.90
2022-08-26T23:24:19.381Z,78.07
2022-08-26T23:26:51.092Z,75.27
2022-08-26T23:29:22.716Z,75.13
2022-08-26T23:31:54.544Z,77.07
2022-08-26T23:34:44.735Z,76.47
2022-08-26T23:37:19.631Z,75.50
2022-08-26T23:42:27.851Z,78.43
2022-08-26T23:45:02.684Z,73.05
2022-08-26T23:47:35.127Z,75.07
2022-08-26T23:50:08.298Z,77.90
2022-08-26T23:52:58.558Z,76.43
2022-08-26T23:55:34.475Z,76.97
2022-08-26T23:58:06.713Z,76.23
